Terminal Aerodrome Forecast
Issued by NWS

Home | Current Version | Previous Version | Text Only | Print | Product List | Glossary On
Versions: 1 2 3 4 5 6 7 8 9 10 11 12 13 14 15 16 17 18
000
FTUS45 KPIH 281800 AAA
TAFSUN
TAF AMD
KSUN 281853Z 2819/2918 14005KT 1/2SM FG BKN001
      TEMPO 2819/2823 1/4SM FG OVC001
     FM290400 31008KT P6SM SCT001 SCT200=

USA.gov is the U.S. government's official web portal to all federal, state and local government web resources and services.